sensor_id;sensor_type;location;lat;lon;timestamp;pressure;altitude;pressure_sealevel;temperature;humidity
13952;BME280;39535;52.192;9.886;2023-03-09T00:01:38;98201.47;;;1.56;100.00
13952;BME280;39535;52.192;9.886;2023-03-09T00:04:05;98203.22;;;1.55;100.00
13952;BME280;39535;52.192;9.886;2023-03-09T00:06:31;98203.09;;;1.62;100.00
13952;BME280;39535;52.192;9.886;2023-03-09T00:08:58;98196.22;;;1.62;100.00
13952;BME280;39535;52.192;9.886;2023-03-09T00:11:24;98199.66;;;1.63;100.00
13952;BME280;39535;52.192;9.886;2023-03-09T00:13:52;98195.38;;;1.63;99.86
13952;BME280;39535;52.192;9.886;2023-03-09T00:16:20;98192.81;;;1.62;100.00
13952;BME280;39535;52.192;9.886;2023-03-09T00:18:47;98191.97;;;1.61;100.00
13952;BME280;39535;52.192;9.886;2023-03-09T00:21:15;98179.94;;;1.63;100.00
13952;BME280;39535;52.192;9.886;2023-03-09T00:23:59;98187.63;;;1.65;100.00
13952;BME280;39535;52.192;9.886;2023-03-09T00:26:26;98175.84;;;1.53;100.00
13952;BME280;39535;52.192;9.886;2023-03-09T00:28:53;98169.78;;;1.55;100.00
13952;BME280;39535;52.192;9.886;2023-03-09T00:31:20;98171.44;;;1.59;100.00
13952;BME280;39535;52.192;9.886;2023-03-09T00:33:47;98162.19;;;1.51;100.00
13952;BME280;39535;52.192;9.886;2023-03-09T00:36:14;98153.47;;;1.56;100.00
13952;BME280;39535;52.192;9.886;2023-03-09T00:38:41;98150.03;;;1.59;100.00
13952;BME280;39535;52.192;9.886;2023-03-09T00:41:07;98162.84;;;1.61;100.00
13952;BME280;39535;52.192;9.886;2023-03-09T00:43:34;98168.84;;;1.61;100.00
13952;BME280;39535;52.192;9.886;2023-03-09T00:46:02;98162.78;;;1.64;100.00
13952;BME280;39535;52.192;9.886;2023-03-09T00:48:28;98164.56;;;1.58;100.00
13952;BME280;39535;52.192;9.886;2023-03-09T00:50:54;98161.16;;;1.58;100.00
13952;BME280;39535;52.192;9.886;2023-03-09T00:53:21;98148.34;;;1.56;100.00
13952;BME280;39535;52.192;9.886;2023-03-09T00:55:47;98146.56;;;1.60;100.00
13952;BME280;39535;52.192;9.886;2023-03-09T00:58:14;98150.03;;;1.57;100.00
13952;BME280;39535;52.192;9.886;2023-03-09T01:00:40;98153.38;;;1.63;100.00
13952;BME280;39535;52.192;9.886;2023-03-09T01:03:08;98154.25;;;1.62;100.00
13952;BME280;39535;52.192;9.886;2023-03-09T01:05:36;98146.53;;;1.62;100.00
13952;BME280;39535;52.192;9.886;2023-03-09T01:08:03;98145.72;;;1.59;100.00
13952;BME280;39535;52.192;9.886;2023-03-09T01:10:29;98143.19;;;1.56;100.00
13952;BME280;39535;52.192;9.886;2023-03-09T01:12:56;98139.78;;;1.56;100.00
13952;BME280;39535;52.192;9.886;2023-03-09T01:15:22;98136.22;;;1.63;100.00
13952;BME280;39535;52.192;9.886;2023-03-09T01:17:49;98135.41;;;1.61;100.00
13952;BME280;39535;52.192;9.886;2023-03-09T01:20:16;98125.25;;;1.55;100.00
13952;BME280;39535;52.192;9.886;2023-03-09T01:22:43;98119.25;;;1.54;100.00
13952;BME280;39535;52.192;9.886;2023-03-09T01:25:09;98113.09;;;1.62;100.00
13952;BME280;39535;52.192;9.886;2023-03-09T01:27:36;98111.50;;;1.56;99.62
13952;BME280;39535;52.192;9.886;2023-03-09T01:30:03;98115.84;;;1.52;100.00
13952;BME280;39535;52.192;9.886;2023-03-09T01:32:30;98112.34;;;1.56;100.00
13952;BME280;39535;52.192;9.886;2023-03-09T01:34:57;98113.22;;;1.57;100.00
13952;BME280;39535;52.192;9.886;2023-03-09T01:37:25;98109.72;;;1.59;99.82
13952;BME280;39535;52.192;9.886;2023-03-09T01:39:51;98109.72;;;1.59;99.84
13952;BME280;39535;52.192;9.886;2023-03-09T01:42:18;98097.84;;;1.52;99.74
13952;BME280;39535;52.192;9.886;2023-03-09T01:44:44;98085.81;;;1.54;99.69
13952;BME280;39535;52.192;9.886;2023-03-09T01:47:11;98090.25;;;1.48;100.00
13952;BME280;39535;52.192;9.886;2023-03-09T01:49:40;98081.63;;;1.50;100.00
13952;BME280;39535;52.192;9.886;2023-03-09T01:52:13;98079.19;;;1.43;100.00
13952;BME280;39535;52.192;9.886;2023-03-09T01:54:46;98074.13;;;1.41;100.00
13952;BME280;39535;52.192;9.886;2023-03-09T01:57:18;98065.47;;;1.44;100.00
13952;BME280;39535;52.192;9.886;2023-03-09T01:59:48;98065.50;;;1.42;100.00
13952;BME280;39535;52.192;9.886;2023-03-09T02:02:17;98069.69;;;1.48;100.00
13952;BME280;39535;52.192;9.886;2023-03-09T02:04:47;98085.91;;;1.51;100.00
13952;BME280;39535;52.192;9.886;2023-03-09T02:07:16;98083.31;;;1.53;100.00
13952;BME280;39535;52.192;9.886;2023-03-09T02:09:48;98095.28;;;1.52;100.00
13952;BME280;39535;52.192;9.886;2023-03-09T02:12:19;98092.69;;;1.54;100.00
13952;BME280;39535;52.192;9.886;2023-03-09T02:14:46;98087.53;;;1.55;100.00
13952;BME280;39535;52.192;9.886;2023-03-09T02:17:14;98104.69;;;1.53;100.00
13952;BME280;39535;52.192;9.886;2023-03-09T02:19:50;98097.00;;;1.52;100.00
13952;BME280;39535;52.192;9.886;2023-03-09T02:22:20;98100.53;;;1.48;100.00
13952;BME280;39535;52.192;9.886;2023-03-09T02:24:55;98094.47;;;1.50;100.00
13952;BME280;39535;52.192;9.886;2023-03-09T02:27:28;98102.94;;;1.57;100.00
13952;BME280;39535;52.192;9.886;2023-03-09T02:29:56;98126.84;;;1.61;100.00
13952;BME280;39535;52.192;9.886;2023-03-09T02:32:23;98136.28;;;1.60;100.00
13952;BME280;39535;52.192;9.886;2023-03-09T02:34:49;98141.41;;;1.60;100.00
13952;BME280;39535;52.192;9.886;2023-03-09T02:37:24;98138.81;;;1.62;99.88
13952;BME280;39535;52.192;9.886;2023-03-09T02:39:53;98142.28;;;1.61;100.00
13952;BME280;39535;52.192;9.886;2023-03-09T02:42:21;98145.75;;;1.58;100.00
13952;BME280;39535;52.192;9.886;2023-03-09T02:44:49;98149.19;;;1.57;100.00
13952;BME280;39535;52.192;9.886;2023-03-09T02:47:17;98144.09;;;1.55;100.00
13952;BME280;39535;52.192;9.886;2023-03-09T02:49:44;98147.56;;;1.53;100.00
13952;BME280;39535;52.192;9.886;2023-03-09T02:52:11;98140.84;;;1.46;100.00
13952;BME280;39535;52.192;9.886;2023-03-09T02:54:38;98125.44;;;1.44;100.00
13952;BME280;39535;52.192;9.886;2023-03-09T02:57:04;98122.06;;;1.41;100.00
13952;BME280;39535;52.192;9.886;2023-03-09T02:59:31;98124.59;;;1.45;100.00
13952;BME280;39535;52.192;9.886;2023-03-09T03:01:59;98128.00;;;1.46;100.00
13952;BME280;39535;52.192;9.886;2023-03-09T03:04:26;98138.44;;;1.36;100.00
13952;BME280;39535;52.192;9.886;2023-03-09T03:06:52;98123.84;;;1.38;100.00
13952;BME280;39535;52.192;9.886;2023-03-09T03:09:19;98127.28;;;1.39;100.00
13952;BME280;39535;52.192;9.886;2023-03-09T03:11:45;98127.19;;;1.44;100.00
13952;BME280;39535;52.192;9.886;2023-03-09T03:14:12;98132.34;;;1.41;100.00
13952;BME280;39535;52.192;9.886;2023-03-09T03:16:38;98124.66;;;1.41;100.00
13952;BME280;39535;52.192;9.886;2023-03-09T03:19:06;98115.16;;;1.44;100.00
13952;BME280;39535;52.192;9.886;2023-03-09T03:21:32;98117.84;;;1.39;100.00
13952;BME280;39535;52.192;9.886;2023-03-09T03:23:59;98118.75;;;1.37;100.00
13952;BME280;39535;52.192;9.886;2023-03-09T03:26:26;98131.53;;;1.40;100.00
13952;BME280;39535;52.192;9.886;2023-03-09T03:28:52;98143.50;;;1.41;99.98
13952;BME280;39535;52.192;9.886;2023-03-09T03:31:19;98155.44;;;1.44;100.00
13952;BME280;39535;52.192;9.886;2023-03-09T03:33:45;98162.31;;;1.43;100.00
13952;BME280;39535;52.192;9.886;2023-03-09T03:36:13;98171.91;;;1.35;100.00
13952;BME280;39535;52.192;9.886;2023-03-09T03:38:39;98156.47;;;1.35;100.00
13952;BME280;39535;52.192;9.886;2023-03-09T03:41:06;98157.31;;;1.35;100.00
13952;BME280;39535;52.192;9.886;2023-03-09T03:43:33;98176.13;;;1.39;100.00
13952;BME280;39535;52.192;9.886;2023-03-09T03:45:59;98189.81;;;1.39;99.92
13952;BME280;39535;52.192;9.886;2023-03-09T03:48:26;98209.47;;;1.41;100.00
13952;BME280;39535;52.192;9.886;2023-03-09T03:50:52;98214.72;;;1.36;99.90
13952;BME280;39535;52.192;9.886;2023-03-09T03:53:20;98208.72;;;1.35;100.00
13952;BME280;39535;52.192;9.886;2023-03-09T03:55:46;98193.31;;;1.35;100.00
13952;BME280;39535;52.192;9.886;2023-03-09T03:58:13;98205.22;;;1.39;100.00
13952;BME280;39535;52.192;9.886;2023-03-09T04:00:39;98206.88;;;1.42;100.00
13952;BME280;39535;52.192;9.886;2023-03-09T04:03:06;98229.94;;;1.47;99.58
13952;BME280;39535;52.192;9.886;2023-03-09T04:05:32;98229.16;;;1.43;99.14
13952;BME280;39535;52.192;9.886;2023-03-09T04:07:59;98230.00;;;1.42;99.71
13952;BME280;39535;52.192;9.886;2023-03-09T04:10:27;98231.75;;;1.40;99.73
13952;BME280;39535;52.192;9.886;2023-03-09T04:12:54;98236.94;;;1.38;100.00
13952;BME280;39535;52.192;9.886;2023-03-09T04:15:20;98249.75;;;1.42;99.57
13952;BME280;39535;52.192;9.886;2023-03-09T04:17:47;98252.28;;;1.43;99.86
13952;BME280;39535;52.192;9.886;2023-03-09T04:20:13;98264.34;;;1.38;100.00
13952;BME280;39535;52.192;9.886;2023-03-09T04:22:40;98253.16;;;1.41;99.98
13952;BME280;39535;52.192;9.886;2023-03-09T04:25:08;98247.16;;;1.42;100.00
13952;BME280;39535;52.192;9.886;2023-03-09T04:27:36;98240.50;;;1.31;100.00
13952;BME280;39535;52.192;9.886;2023-03-09T04:30:02;98235.34;;;1.33;100.00
13952;BME280;39535;52.192;9.886;2023-03-09T04:32:29;98231.03;;;1.33;100.00
13952;BME280;39535;52.192;9.886;2023-03-09T04:34:55;98238.72;;;1.35;100.00
13952;BME280;39535;52.192;9.886;2023-03-09T04:37:22;98250.69;;;1.36;100.00
13952;BME280;39535;52.192;9.886;2023-03-09T04:39:48;98260.03;;;1.40;100.00
13952;BME280;39535;52.192;9.886;2023-03-09T04:42:15;98265.16;;;1.42;100.00
13952;BME280;39535;52.192;9.886;2023-03-09T04:44:42;98284.06;;;1.39;100.00
13952;BME280;39535;52.192;9.886;2023-03-09T04:47:10;98281.44;;;1.41;100.00
13952;BME280;39535;52.192;9.886;2023-03-09T04:49:38;98289.97;;;1.43;100.00
13952;BME280;39535;52.192;9.886;2023-03-09T04:52:04;98297.66;;;1.44;99.52
13952;BME280;39535;52.192;9.886;2023-03-09T04:54:31;98285.72;;;1.42;100.00
13952;BME280;39535;52.192;9.886;2023-03-09T04:56:57;98279.75;;;1.41;99.71
13952;BME280;39535;52.192;9.886;2023-03-09T04:59:24;98282.34;;;1.38;100.00
13952;BME280;39535;52.192;9.886;2023-03-09T05:01:52;98258.41;;;1.36;100.00
13952;BME280;39535;52.192;9.886;2023-03-09T05:04:18;98259.22;;;1.38;100.00
13952;BME280;39535;52.192;9.886;2023-03-09T05:06:44;98274.63;;;1.38;100.00
13952;BME280;39535;52.192;9.886;2023-03-09T05:09:12;98290.84;;;1.43;100.00
13952;BME280;39535;52.192;9.886;2023-03-09T05:11:39;98295.94;;;1.45;100.00
13952;BME280;39535;52.192;9.886;2023-03-09T05:14:05;98309.66;;;1.45;100.00
13952;BME280;39535;52.192;9.886;2023-03-09T05:16:32;98312.38;;;1.36;100.00
13952;BME280;39535;52.192;9.886;2023-03-09T05:18:59;98311.53;;;1.35;100.00
13952;BME280;39535;52.192;9.886;2023-03-09T05:21:26;98303.81;;;1.35;100.00
13952;BME280;39535;52.192;9.886;2023-03-09T05:23:52;98287.50;;;1.36;100.00
13952;BME280;39535;52.192;9.886;2023-03-09T05:26:19;98296.00;;;1.42;100.00
13952;BME280;39535;52.192;9.886;2023-03-09T05:28:45;98308.84;;;1.43;100.00
13952;BME280;39535;52.192;9.886;2023-03-09T05:31:14;98322.50;;;1.45;100.00
13952;BME280;39535;52.192;9.886;2023-03-09T05:33:41;98333.66;;;1.44;100.00
13952;BME280;39535;52.192;9.886;2023-03-09T05:36:15;98345.66;;;1.44;100.00
13952;BME280;39535;52.192;9.886;2023-03-09T05:38:42;98352.47;;;1.48;100.00
13952;BME280;39535;52.192;9.886;2023-03-09T05:41:08;98359.47;;;1.38;100.00
13952;BME280;39535;52.192;9.886;2023-03-09T05:43:35;98360.25;;;1.43;100.00
13952;BME280;39535;52.192;9.886;2023-03-09T05:46:07;98349.97;;;1.43;100.00
13952;BME280;39535;52.192;9.886;2023-03-09T05:48:33;98347.34;;;1.45;100.00
13952;BME280;39535;52.192;9.886;2023-03-09T05:51:00;98350.81;;;1.44;100.00
13952;BME280;39535;52.192;9.886;2023-03-09T05:53:27;98362.81;;;1.43;100.00
13952;BME280;39535;52.192;9.886;2023-03-09T05:55:56;98363.63;;;1.47;100.00
13952;BME280;39535;52.192;9.886;2023-03-09T05:58:22;98366.25;;;1.41;100.00
13952;BME280;39535;52.192;9.886;2023-03-09T06:00:49;98353.47;;;1.37;100.00
13952;BME280;39535;52.192;9.886;2023-03-09T06:03:17;98361.94;;;1.43;100.00
13952;BME280;39535;52.192;9.886;2023-03-09T06:05:43;98379.94;;;1.44;100.00
13952;BME280;39535;52.192;9.886;2023-03-09T06:08:10;98391.91;;;1.47;100.00
13952;BME280;39535;52.192;9.886;2023-03-09T06:10:38;98391.03;;;1.46;99.60
13952;BME280;39535;52.192;9.886;2023-03-09T06:13:04;98400.50;;;1.43;100.00
13952;BME280;39535;52.192;9.886;2023-03-09T06:15:31;98395.38;;;1.43;100.00
13952;BME280;39535;52.192;9.886;2023-03-09T06:17:57;98409.09;;;1.43;100.00
13952;BME280;39535;52.192;9.886;2023-03-09T06:20:24;98419.38;;;1.43;99.89
13952;BME280;39535;52.192;9.886;2023-03-09T06:22:50;98412.53;;;1.41;100.00
13952;BME280;39535;52.192;9.886;2023-03-09T06:25:17;98416.81;;;1.43;100.00
13952;BME280;39535;52.192;9.886;2023-03-09T06:27:44;98419.38;;;1.43;100.00
13952;BME280;39535;52.192;9.886;2023-03-09T06:30:12;98406.63;;;1.37;100.00
13952;BME280;39535;52.192;9.886;2023-03-09T06:32:38;98407.41;;;1.41;100.00
13952;BME280;39535;52.192;9.886;2023-03-09T06:35:05;98403.16;;;1.36;100.00
13952;BME280;39535;52.192;9.886;2023-03-09T06:37:32;98397.09;;;1.42;100.00
13952;BME280;39535;52.192;9.886;2023-03-09T06:39:58;98403.94;;;1.43;100.00
13952;BME280;39535;52.192;9.886;2023-03-09T06:42:24;98411.59;;;1.46;100.00
13952;BME280;39535;52.192;9.886;2023-03-09T06:44:52;98421.03;;;1.47;100.00
13952;BME280;39535;52.192;9.886;2023-03-09T06:47:18;98410.72;;;1.49;100.00
13952;BME280;39535;52.192;9.886;2023-03-09T06:49:45;98406.41;;;1.51;100.00
13952;BME280;39535;52.192;9.886;2023-03-09T06:52:11;98419.16;;;1.57;100.00
13952;BME280;39535;52.192;9.886;2023-03-09T06:54:37;98427.00;;;1.49;100.00
13952;BME280;39535;52.192;9.886;2023-03-09T06:57:04;98430.38;;;1.53;100.00
13952;BME280;39535;52.192;9.886;2023-03-09T06:59:31;98432.06;;;1.52;100.00
13952;BME280;39535;52.192;9.886;2023-03-09T07:01:58;98449.09;;;1.61;100.00
13952;BME280;39535;52.192;9.886;2023-03-09T07:04:24;98464.41;;;1.69;99.84
13952;BME280;39535;52.192;9.886;2023-03-09T07:06:51;98475.50;;;1.72;99.19
13952;BME280;39535;52.192;9.886;2023-03-09T07:09:17;98496.03;;;1.74;99.33
13952;BME280;39535;52.192;9.886;2023-03-09T07:11:43;98515.75;;;1.75;98.74
13952;BME280;39535;52.192;9.886;2023-03-09T07:14:11;98526.91;;;1.75;98.45
13952;BME280;39535;52.192;9.886;2023-03-09T07:16:38;98532.88;;;1.76;98.44
13952;BME280;39535;52.192;9.886;2023-03-09T07:19:05;98540.56;;;1.81;98.67
13952;BME280;39535;52.192;9.886;2023-03-09T07:21:32;98543.84;;;1.89;98.39
13952;BME280;39535;52.192;9.886;2023-03-09T07:23:58;98562.69;;;1.91;98.28
13952;BME280;39535;52.192;9.886;2023-03-09T07:26:24;98561.00;;;1.88;97.88
13952;BME280;39535;52.192;9.886;2023-03-09T07:28:52;98569.50;;;1.95;98.04
13952;BME280;39535;52.192;9.886;2023-03-09T07:31:18;98580.63;;;1.95;96.90
13952;BME280;39535;52.192;9.886;2023-03-09T07:33:47;98594.41;;;1.93;96.80
13952;BME280;39535;52.192;9.886;2023-03-09T07:36:15;98601.19;;;1.98;96.83
13952;BME280;39535;52.192;9.886;2023-03-09T07:38:42;98608.06;;;1.96;96.39
13952;BME280;39535;52.192;9.886;2023-03-09T07:41:08;98620.91;;;1.98;96.78
13952;BME280;39535;52.192;9.886;2023-03-09T07:43:34;98639.69;;;2.05;96.86
13952;BME280;39535;52.192;9.886;2023-03-09T07:46:04;98649.13;;;2.04;96.40
13952;BME280;39535;52.192;9.886;2023-03-09T07:48:31;98665.41;;;2.06;96.12
13952;BME280;39535;52.192;9.886;2023-03-09T07:50:58;98669.69;;;2.06;95.99
13952;BME280;39535;52.192;9.886;2023-03-09T07:53:26;98682.53;;;2.09;96.22
13952;BME280;39535;52.192;9.886;2023-03-09T07:55:55;98674.81;;;2.09;95.93
13952;BME280;39535;52.192;9.886;2023-03-09T07:58:22;98665.34;;;2.09;96.24
13952;BME280;39535;52.192;9.886;2023-03-09T08:00:49;98677.41;;;2.04;96.58
13952;BME280;39535;52.192;9.886;2023-03-09T08:03:15;98677.41;;;2.06;96.44
13952;BME280;39535;52.192;9.886;2023-03-09T08:05:42;98679.13;;;2.05;96.58
13952;BME280;39535;52.192;9.886;2023-03-09T08:08:08;98666.25;;;2.07;96.55
13952;BME280;39535;52.192;9.886;2023-03-09T08:10:38;98673.06;;;2.11;96.55
13952;BME280;39535;52.192;9.886;2023-03-09T08:13:05;98676.44;;;2.14;96.56
13952;BME280;39535;52.192;9.886;2023-03-09T08:15:31;98685.84;;;2.18;96.24
13952;BME280;39535;52.192;9.886;2023-03-09T08:17:57;98682.44;;;2.15;95.94
13952;BME280;39535;52.192;9.886;2023-03-09T08:20:25;98678.19;;;2.12;96.96
13952;BME280;39535;52.192;9.886;2023-03-09T08:22:51;98680.72;;;2.15;96.75
13952;BME280;39535;52.192;9.886;2023-03-09T08:25:18;98675.47;;;2.22;96.66
13952;BME280;39535;52.192;9.886;2023-03-09T08:27:45;98697.78;;;2.23;95.69
13952;BME280;39535;52.192;9.886;2023-03-09T08:30:13;98713.16;;;2.29;95.54
13952;BME280;39535;52.192;9.886;2023-03-09T08:32:40;98720.88;;;2.27;95.77
13952;BME280;39535;52.192;9.886;2023-03-09T08:35:08;98718.25;;;2.32;95.39
13952;BME280;39535;52.192;9.886;2023-03-09T08:37:34;98714.00;;;2.29;95.35
13952;BME280;39535;52.192;9.886;2023-03-09T08:40:01;98731.97;;;2.34;95.47
13952;BME280;39535;52.192;9.886;2023-03-09T08:42:27;98722.53;;;2.34;95.25
13952;BME280;39535;52.192;9.886;2023-03-09T08:44:55;98718.13;;;2.39;94.99
13952;BME280;39535;52.192;9.886;2023-03-09T08:47:21;98734.47;;;2.40;95.17
13952;BME280;39535;52.192;9.886;2023-03-09T08:49:48;98752.41;;;2.45;94.21
13952;BME280;39535;52.192;9.886;2023-03-09T08:52:15;98778.25;;;2.38;94.37
13952;BME280;39535;52.192;9.886;2023-03-09T08:54:42;98788.53;;;2.38;93.92
13952;BME280;39535;52.192;9.886;2023-03-09T08:57:08;98800.56;;;2.38;94.16
13952;BME280;39535;52.192;9.886;2023-03-09T08:59:35;98810.91;;;2.35;94.47
13952;BME280;39535;52.192;9.886;2023-03-09T09:02:04;98813.44;;;2.38;94.47
13952;BME280;39535;52.192;9.886;2023-03-09T09:04:30;98817.72;;;2.39;94.36
13952;BME280;39535;52.192;9.886;2023-03-09T09:06:57;98826.28;;;2.39;94.13
13952;BME280;39535;52.192;9.886;2023-03-09T09:09:23;98817.78;;;2.33;95.41
13952;BME280;39535;52.192;9.886;2023-03-09T09:11:50;98809.25;;;2.29;95.35
13952;BME280;39535;52.192;9.886;2023-03-09T09:14:16;98792.88;;;2.33;95.56
13952;BME280;39535;52.192;9.886;2023-03-09T09:16:42;98785.16;;;2.33;95.17
13952;BME280;39535;52.192;9.886;2023-03-09T09:19:10;98792.94;;;2.29;95.36
13952;BME280;39535;52.192;9.886;2023-03-09T09:21:36;98785.19;;;2.32;95.35
13952;BME280;39535;52.192;9.886;2023-03-09T09:24:03;98784.34;;;2.31;95.81
13952;BME280;39535;52.192;9.886;2023-03-09T09:26:30;98769.78;;;2.27;96.38
13952;BME280;39535;52.192;9.886;2023-03-09T09:28:56;98769.69;;;2.36;96.20
13952;BME280;39535;52.192;9.886;2023-03-09T09:31:26;98772.22;;;2.39;95.82
13952;BME280;39535;52.192;9.886;2023-03-09T09:33:53;98778.19;;;2.43;95.75
13952;BME280;39535;52.192;9.886;2023-03-09T09:36:20;98779.00;;;2.45;95.67
13952;BME280;39535;52.192;9.886;2023-03-09T09:38:47;98773.75;;;2.53;95.70
13952;BME280;39535;52.192;9.886;2023-03-09T09:41:17;98775.34;;;2.63;94.97
13952;BME280;39535;52.192;9.886;2023-03-09T09:43:47;98805.31;;;2.69;94.54
13952;BME280;39535;52.192;9.886;2023-03-09T09:46:16;98826.69;;;2.75;94.34
13952;BME280;39535;52.192;9.886;2023-03-09T09:48:45;98836.13;;;2.76;93.91
13952;BME280;39535;52.192;9.886;2023-03-09T09:54:29;98863.50;;;2.85;93.36
13952;BME280;39535;52.192;9.886;2023-03-09T09:57:01;98873.78;;;2.88;93.00
13952;BME280;39535;52.192;9.886;2023-03-09T09:59:33;98887.47;;;2.93;92.68
13952;BME280;39535;52.192;9.886;2023-03-09T10:02:20;98886.53;;;2.97;92.40
13952;BME280;39535;52.192;9.886;2023-03-09T10:04:52;98898.59;;;2.95;92.22
13952;BME280;39535;52.192;9.886;2023-03-09T10:07:22;98901.97;;;2.99;91.60
13952;BME280;39535;52.192;9.886;2023-03-09T10:09:54;98909.63;;;3.05;91.68
13952;BME280;39535;52.192;9.886;2023-03-09T10:12:22;98927.59;;;3.11;91.21
13952;BME280;39535;52.192;9.886;2023-03-09T10:14:52;98935.28;;;3.16;91.03
13952;BME280;39535;52.192;9.886;2023-03-09T10:17:26;98942.91;;;3.25;91.25
13952;BME280;39535;52.192;9.886;2023-03-09T10:19:56;98953.91;;;3.35;90.99
13952;BME280;39535;52.192;9.886;2023-03-09T10:22:25;98965.94;;;3.37;90.42
13952;BME280;39535;52.192;9.886;2023-03-09T10:24:55;98984.81;;;3.38;89.83
13952;BME280;39535;52.192;9.886;2023-03-09T10:27:26;99006.38;;;3.35;89.47
13952;BME280;39535;52.192;9.886;2023-03-09T10:29:57;99018.38;;;3.36;89.03
13952;BME280;39535;52.192;9.886;2023-03-09T10:32:34;99024.41;;;3.35;88.87
13952;BME280;39535;52.192;9.886;2023-03-09T10:35:08;99021.81;;;3.37;89.16
13952;BME280;39535;52.192;9.886;2023-03-09T10:37:41;99026.94;;;3.38;89.32
13952;BME280;39535;52.192;9.886;2023-03-09T10:40:16;99027.00;;;3.35;88.82
13952;BME280;39535;52.192;9.886;2023-03-09T10:42:43;99027.00;;;3.34;89.24
13952;BME280;39535;52.192;9.886;2023-03-09T10:45:20;99018.44;;;3.33;89.42
13952;BME280;39535;52.192;9.886;2023-03-09T10:47:58;99016.69;;;3.34;89.50
13952;BME280;39535;52.192;9.886;2023-03-09T10:50:28;99018.38;;;3.36;89.06
13952;BME280;39535;52.192;9.886;2023-03-09T10:52:56;99017.53;;;3.36;89.49
13952;BME280;39535;52.192;9.886;2023-03-09T10:55:33;99010.63;;;3.38;90.09
13952;BME280;39535;52.192;9.886;2023-03-09T10:58:12;99009.81;;;3.33;90.10
13952;BME280;39535;52.192;9.886;2023-03-09T11:00:48;98996.22;;;3.23;90.35
13952;BME280;39535;52.192;9.886;2023-03-09T11:03:19;98979.84;;;3.26;91.01
13952;BME280;39535;52.192;9.886;2023-03-09T11:05:46;98980.66;;;3.29;90.20
13952;BME280;39535;52.192;9.886;2023-03-09T11:08:22;98989.97;;;3.40;91.17
13952;BME280;39535;52.192;9.886;2023-03-09T11:11:00;99000.31;;;3.36;90.95
13952;BME280;39535;52.192;9.886;2023-03-09T11:13:27;99000.31;;;3.36;91.05
13952;BME280;39535;52.192;9.886;2023-03-09T11:16:04;98996.81;;;3.42;90.96
13952;BME280;39535;52.192;9.886;2023-03-09T11:18:31;98990.81;;;3.40;91.17
13952;BME280;39535;52.192;9.886;2023-03-09T11:20:57;99008.03;;;3.40;90.88
13952;BME280;39535;52.192;9.886;2023-03-09T11:23:26;98999.44;;;3.39;90.72
13952;BME280;39535;52.192;9.886;2023-03-09T11:26:04;98992.59;;;3.35;90.71
13952;BME280;39535;52.192;9.886;2023-03-09T11:28:41;99010.69;;;3.33;90.66
13952;BME280;39535;52.192;9.886;2023-03-09T11:31:12;99015.00;;;3.31;90.66
13952;BME280;39535;52.192;9.886;2023-03-09T11:33:39;99017.53;;;3.33;90.99
13952;BME280;39535;52.192;9.886;2023-03-09T11:36:10;99013.25;;;3.33;91.13
13952;BME280;39535;52.192;9.886;2023-03-09T11:38:39;99005.56;;;3.29;91.52
13952;BME280;39535;52.192;9.886;2023-03-09T11:41:14;98995.25;;;3.30;91.66
13952;BME280;39535;52.192;9.886;2023-03-09T11:43:43;98997.81;;;3.32;91.52
13952;BME280;39535;52.192;9.886;2023-03-09T11:46:13;99002.97;;;3.30;91.50
13952;BME280;39535;52.192;9.886;2023-03-09T11:48:44;98997.88;;;3.27;91.91
13952;BME280;39535;52.192;9.886;2023-03-09T11:51:13;98980.75;;;3.23;92.01
13952;BME280;39535;52.192;9.886;2023-03-09T11:54:01;98965.28;;;3.22;92.73
13952;BME280;39535;52.192;9.886;2023-03-09T11:56:35;98951.50;;;3.23;92.67
13952;BME280;39535;52.192;9.886;2023-03-09T11:59:10;98955.81;;;3.21;92.70
13952;BME280;39535;52.192;9.886;2023-03-09T12:01:40;98948.06;;;3.22;93.17
13952;BME280;39535;52.192;9.886;2023-03-09T12:04:13;98935.22;;;3.19;93.63
13952;BME280;39535;52.192;9.886;2023-03-09T12:06:46;98927.44;;;3.22;93.52
13952;BME280;39535;52.192;9.886;2023-03-09T12:09:22;98926.63;;;3.20;93.32
13952;BME280;39535;52.192;9.886;2023-03-09T12:11:56;98916.31;;;3.20;93.82
13952;BME280;39535;52.192;9.886;2023-03-09T12:14:27;98917.16;;;3.21;94.23
13952;BME280;39535;52.192;9.886;2023-03-09T12:17:00;98911.13;;;3.23;94.18
13952;BME280;39535;52.192;9.886;2023-03-09T12:19:31;98899.91;;;3.26;95.26
13952;BME280;39535;52.192;9.886;2023-03-09T12:22:01;98885.28;;;3.26;95.16
13952;BME280;39535;52.192;9.886;2023-03-09T12:24:33;98897.16;;;3.35;94.72
13952;BME280;39535;52.192;9.886;2023-03-09T12:27:10;98910.16;;;3.29;94.67
13952;BME280;39535;52.192;9.886;2023-03-09T12:29:43;98910.03;;;3.40;94.46
13952;BME280;39535;52.192;9.886;2023-03-09T12:32:33;98931.41;;;3.45;93.38
13952;BME280;39535;52.192;9.886;2023-03-09T12:35:02;98869.25;;;3.63;97.46
13952;BME280;39535;52.192;9.886;2023-03-09T12:37:51;98847.72;;;3.63;96.37
13952;BME280;39535;52.192;9.886;2023-03-09T12:40:21;98865.78;;;3.64;95.14
13952;BME280;39535;52.192;9.886;2023-03-09T12:42:58;98905.59;;;3.46;93.67
13952;BME280;39535;52.192;9.886;2023-03-09T12:45:45;98928.00;;;3.44;93.74
13952;BME280;39535;52.192;9.886;2023-03-09T12:48:21;98926.25;;;3.45;93.56
13952;BME280;39535;52.192;9.886;2023-03-09T12:50:54;98930.53;;;3.47;93.44
13952;BME280;39535;52.192;9.886;2023-03-09T12:53:26;98933.97;;;3.46;93.42
13952;BME280;39535;52.192;9.886;2023-03-09T12:55:57;98931.41;;;3.46;93.90
13952;BME280;39535;52.192;9.886;2023-03-09T12:58:43;98957.09;;;3.52;94.06
13952;BME280;39535;52.192;9.886;2023-03-09T13:01:28;98960.50;;;3.56;93.43
13952;BME280;39535;52.192;9.886;2023-03-09T13:04:10;98962.16;;;3.60;93.07
13952;BME280;39535;52.192;9.886;2023-03-09T13:06:38;98978.47;;;3.62;93.39
13952;BME280;39535;52.192;9.886;2023-03-09T13:09:17;98962.22;;;3.57;94.26
13952;BME280;39535;52.192;9.886;2023-03-09T13:11:45;98964.75;;;3.58;94.00
13952;BME280;39535;52.192;9.886;2023-03-09T13:14:14;98957.78;;;3.65;93.58
13952;BME280;39535;52.192;9.886;2023-03-09T13:16:51;98981.88;;;3.66;92.79